createdAt,value
2018-01-18T00:00:32.956Z,3.36
2018-01-18T00:01:33.015Z,3.39
2018-01-18T00:02:33.040Z,3.40
2018-01-18T00:03:33.078Z,3.31
2018-01-18T00:04:33.121Z,3.39
2018-01-18T00:05:33.183Z,3.40
2018-01-18T00:06:33.220Z,3.43
2018-01-18T00:07:33.246Z,3.42
2018-01-18T00:08:33.288Z,3.43
2018-01-18T00:09:33.326Z,3.36
2018-01-18T00:10:33.370Z,3.40
2018-01-18T00:11:33.441Z,3.33
2018-01-18T00:12:33.453Z,3.33
2018-01-18T00:13:33.495Z,3.39
2018-01-18T00:14:33.533Z,3.42
2018-01-18T00:15:33.576Z,3.40
2018-01-18T00:16:33.633Z,3.39
2018-01-18T00:17:33.657Z,3.31
2018-01-18T00:18:33.700Z,3.50
2018-01-18T00:19:33.741Z,3.57
2018-01-18T00:20:33.780Z,3.49
2018-01-18T00:21:33.838Z,3.46
2018-01-18T00:22:33.883Z,3.62
2018-01-18T00:23:33.904Z,3.53
2018-01-18T00:24:33.949Z,3.64
2018-01-18T00:25:33.995Z,3.75
2018-01-18T00:26:34.046Z,3.78
2018-01-18T00:27:34.086Z,3.76
2018-01-18T00:28:34.113Z,3.85
2018-01-18T00:29:34.159Z,3.79
2018-01-18T00:30:34.193Z,3.86
2018-01-18T00:31:34.236Z,3.86
2018-01-18T00:32:34.298Z,3.89
2018-01-18T00:33:34.333Z,3.96
2018-01-18T00:34:34.359Z,3.90
2018-01-18T00:35:34.402Z,4.01
2018-01-18T00:36:34.441Z,3.92
2018-01-18T00:37:34.501Z,3.82
2018-01-18T00:38:34.524Z,3.92
2018-01-18T00:39:34.565Z,4.01
2018-01-18T00:40:34.613Z,3.88
2018-01-18T00:41:34.649Z,3.86
2018-01-18T00:42:34.708Z,4.01
2018-01-18T00:43:34.732Z,3.80
2018-01-18T00:44:34.776Z,3.82
2018-01-18T00:45:34.817Z,3.72
2018-01-18T00:46:34.856Z,3.79
2018-01-18T00:47:34.916Z,3.76
2018-01-18T00:48:34.955Z,3.72
2018-01-18T00:49:34.980Z,3.78
2018-01-18T00:50:35.022Z,3.75
2018-01-18T00:51:35.063Z,3.75
2018-01-18T00:52:35.103Z,3.72
2018-01-18T00:53:35.160Z,3.76
2018-01-18T00:54:35.186Z,3.75
2018-01-18T00:55:35.228Z,3.68
2018-01-18T00:56:35.270Z,3.76
2018-01-18T00:57:35.310Z,3.78
2018-01-18T00:58:35.378Z,3.85
2018-01-18T00:59:35.394Z,3.85
2018-01-18T01:00:35.437Z,3.85
2018-01-18T01:01:35.478Z,3.79
2018-01-18T01:02:35.519Z,3.98
2018-01-18T01:03:35.577Z,4.07
2018-01-18T01:04:35.600Z,3.97
2018-01-18T01:05:35.641Z,4.04
2018-01-18T01:06:35.683Z,4.04
2018-01-18T01:07:35.725Z,4.03
2018-01-18T01:08:35.782Z,4.07
2018-01-18T01:09:35.831Z,4.12
2018-01-18T01:10:35.848Z,4.07
2018-01-18T01:11:35.889Z,4.15
2018-01-18T01:12:35.934Z,4.08
2018-01-18T01:13:35.976Z,4.14
2018-01-18T01:14:36.046Z,4.14
2018-01-18T01:15:36.868Z,4.24
2018-01-18T01:16:36.100Z,4.18
2018-01-18T01:17:36.141Z,4.25
2018-01-18T01:18:36.228Z,4.21
2018-01-18T01:19:36.241Z,4.21
2018-01-18T01:20:36.279Z,4.08
2018-01-18T01:21:36.306Z,4.19
2018-01-18T01:22:36.345Z,4.18
2018-01-18T01:23:36.386Z,4.26
2018-01-18T01:24:36.428Z,4.18
2018-01-18T01:25:36.487Z,4.22
2018-01-18T01:26:36.510Z,4.25
2018-01-18T01:27:36.553Z,4.18
2018-01-18T01:28:36.595Z,4.26
2018-01-18T01:29:36.634Z,4.16
2018-01-18T01:30:36.695Z,4.28
2018-01-18T01:31:36.719Z,4.22
2018-01-18T01:32:36.761Z,4.16
2018-01-18T01:33:36.801Z,4.18
2018-01-18T01:34:36.843Z,4.32
2018-01-18T01:35:36.899Z,4.21
2018-01-18T01:36:36.925Z,4.22
2018-01-18T01:37:36.968Z,4.21
2018-01-18T01:38:37.013Z,4.25
2018-01-18T01:39:37.048Z,4.21
2018-01-18T01:40:37.106Z,4.22
2018-01-18T01:41:37.133Z,4.28
2018-01-18T01:42:37.177Z,4.28
2018-01-18T01:43:37.227Z,4.22
2018-01-18T01:44:37.257Z,4.18
2018-01-18T01:45:37.394Z,4.19
2018-01-18T01:46:37.348Z,4.22
2018-01-18T01:47:37.387Z,4.25
2018-01-18T01:48:37.425Z,4.15
2018-01-18T01:49:37.474Z,4.18
2018-01-18T01:50:37.528Z,4.19
2018-01-18T01:51:37.552Z,4.18
2018-01-18T01:52:37.596Z,4.21
2018-01-18T01:53:37.636Z,4.22
2018-01-18T01:54:37.675Z,4.28
2018-01-18T01:55:37.734Z,4.33
2018-01-18T01:56:37.764Z,4.25
2018-01-18T01:57:37.798Z,4.43
2018-01-18T01:58:37.843Z,4.39
2018-01-18T01:59:37.884Z,4.43
2018-01-18T02:00:37.948Z,4.43
2018-01-18T02:01:37.968Z,4.42
2018-01-18T02:02:38.011Z,4.37
2018-01-18T02:03:38.051Z,4.43
2018-01-18T02:04:38.094Z,4.44
2018-01-18T02:05:38.156Z,4.39
2018-01-18T02:06:38.180Z,4.40
2018-01-18T02:07:38.220Z,4.47
2018-01-18T02:08:38.260Z,4.37
2018-01-18T02:09:38.302Z,4.52
2018-01-18T02:10:38.364Z,4.50
2018-01-18T02:11:38.402Z,4.51
2018-01-18T02:12:38.434Z,4.47
2018-01-18T02:13:38.468Z,4.42
2018-01-18T02:14:38.521Z,4.43
2018-01-18T02:15:38.552Z,4.34
2018-01-18T02:16:38.636Z,4.37
2018-01-18T02:17:38.638Z,4.42
2018-01-18T02:18:38.677Z,4.46
2018-01-18T02:19:38.718Z,4.51
2018-01-18T02:20:38.759Z,4.57
2018-01-18T02:21:38.824Z,4.51
2018-01-18T02:22:38.848Z,4.55
2018-01-18T02:23:38.886Z,4.54
2018-01-18T02:24:38.930Z,4.65
2018-01-18T02:25:38.975Z,4.67
2018-01-18T02:26:39.032Z,4.61
2018-01-18T02:27:39.073Z,4.59
2018-01-18T02:28:39.096Z,4.57
2018-01-18T02:29:39.137Z,4.50
2018-01-18T02:30:39.230Z,4.51
2018-01-18T02:31:39.222Z,4.51
2018-01-18T02:32:39.279Z,4.43
2018-01-18T02:33:39.305Z,4.40
2018-01-18T02:34:39.349Z,4.44
2018-01-18T02:35:39.388Z,4.42
2018-01-18T02:36:39.433Z,4.40
2018-01-18T02:37:39.491Z,4.43
2018-01-18T02:38:39.514Z,4.39
2018-01-18T02:39:39.557Z,4.43
2018-01-18T02:40:39.599Z,4.37
2018-01-18T02:41:39.648Z,4.32
2018-01-18T02:42:39.699Z,4.33
2018-01-18T02:43:39.737Z,4.26
2018-01-18T02:44:39.770Z,4.29
2018-01-18T02:45:39.817Z,4.26
2018-01-18T02:46:39.850Z,4.28
2018-01-18T02:47:39.913Z,4.21
2018-01-18T02:48:39.930Z,4.22
2018-01-18T02:49:39.980Z,4.21
2018-01-18T02:50:40.018Z,4.08
2018-01-18T02:51:40.058Z,4.07
2018-01-18T02:52:40.124Z,4.10
2018-01-18T02:53:40.144Z,4.03
2018-01-18T02:54:40.212Z,4.06
2018-01-18T02:55:40.227Z,4.10
2018-01-18T02:56:40.272Z,4.14
2018-01-18T02:57:40.313Z,4.12
2018-01-18T02:58:40.354Z,4.04
2018-01-18T02:59:40.412Z,4.00
2018-01-18T03:00:40.436Z,4.01
2018-01-18T03:01:40.475Z,3.97
2018-01-18T03:02:40.519Z,3.97
2018-01-18T03:03:40.578Z,3.98
2018-01-18T03:04:40.603Z,4.01
2018-01-18T03:05:40.645Z,3.98
2018-01-18T03:06:40.688Z,3.88
2018-01-18T03:07:40.729Z,3.97
2018-01-18T03:08:40.793Z,3.98
2018-01-18T03:09:40.888Z,4.01
2018-01-18T03:10:40.854Z,4.06
2018-01-18T03:11:40.895Z,4.06
2018-01-18T03:12:40.942Z,4.07
2018-01-18T03:13:40.978Z,4.01
2018-01-18T03:14:41.039Z,4.04
2018-01-18T03:15:41.063Z,4.10
2018-01-18T03:16:41.104Z,3.98
2018-01-18T03:17:41.148Z,4.00
2018-01-18T03:18:41.189Z,4.00
2018-01-18T03:19:41.244Z,3.98
2018-01-18T03:20:41.273Z,3.94
2018-01-18T03:21:41.316Z,3.92
2018-01-18T03:22:41.357Z,4.04
2018-01-18T03:23:41.397Z,4.10
2018-01-18T03:24:42.060Z,4.08
2018-01-18T03:25:41.482Z,4.12
2018-01-18T03:26:41.522Z,4.16
2018-01-18T03:27:41.579Z,4.19
2018-01-18T03:28:41.605Z,4.22
2018-01-18T03:29:41.663Z,4.24
2018-01-18T03:30:41.691Z,4.19
2018-01-18T03:31:41.730Z,4.22
2018-01-18T03:32:41.796Z,4.18
2018-01-18T03:33:41.815Z,4.25
2018-01-18T03:34:41.859Z,4.16
2018-01-18T03:35:41.904Z,4.10
2018-01-18T03:36:41.940Z,4.06
2018-01-18T03:37:42.002Z,4.06
2018-01-18T03:38:42.028Z,4.06
2018-01-18T03:39:42.065Z,4.14
2018-01-18T03:40:42.106Z,4.06
2018-01-18T03:41:42.156Z,4.10
2018-01-18T03:42:42.227Z,4.19
2018-01-18T03:43:42.240Z,4.18
2018-01-18T03:44:42.273Z,4.16
2018-01-18T03:45:42.320Z,4.29
2018-01-18T03:46:42.357Z,4.29
2018-01-18T03:47:42.435Z,4.33
2018-01-18T03:48:42.442Z,4.43
2018-01-18T03:49:42.487Z,4.52
2018-01-18T03:50:42.529Z,4.51
2018-01-18T03:51:42.570Z,4.52
2018-01-18T03:52:42.632Z,4.59
2018-01-18T03:53:42.653Z,4.46
2018-01-18T03:54:42.706Z,4.54
2018-01-18T03:55:42.754Z,4.51
2018-01-18T03:56:42.778Z,4.64
2018-01-18T03:57:42.821Z,4.55
2018-01-18T03:58:42.863Z,4.59
2018-01-18T03:59:42.904Z,4.50
2018-01-18T04:00:42.963Z,4.50
2018-01-18T04:01:42.997Z,4.55
2018-01-18T04:02:43.032Z,4.50
2018-01-18T04:03:43.075Z,4.47
2018-01-18T04:04:43.142Z,4.62
2018-01-18T04:05:43.164Z,4.54
2018-01-18T04:06:43.198Z,4.58
2018-01-18T04:07:43.240Z,4.72
2018-01-18T04:08:43.283Z,4.69
2018-01-18T04:09:43.344Z,4.65
2018-01-18T04:10:43.369Z,4.59
2018-01-18T04:11:43.410Z,4.62
2018-01-18T04:12:43.453Z,4.62
2018-01-18T04:13:43.501Z,4.72
2018-01-18T04:14:43.551Z,4.59
2018-01-18T04:15:43.578Z,4.64
2018-01-18T04:16:43.624Z,4.61
2018-01-18T04:17:43.662Z,4.58
2018-01-18T04:18:43.729Z,4.69
2018-01-18T04:19:43.764Z,4.59
2018-01-18T04:20:43.808Z,4.65
2018-01-18T04:21:43.830Z,4.58
2018-01-18T04:22:43.874Z,4.58
2018-01-18T04:23:43.933Z,4.61
2018-01-18T04:24:43.959Z,4.55
2018-01-18T04:25:44.001Z,4.46
2018-01-18T04:26:44.041Z,4.54
2018-01-18T04:27:44.083Z,4.54
2018-01-18T04:28:44.144Z,4.50
2018-01-18T04:29:44.186Z,4.47
2018-01-18T04:30:44.209Z,4.52
2018-01-18T04:31:44.252Z,4.54
2018-01-18T04:32:44.297Z,4.50
2018-01-18T04:33:44.336Z,4.51
2018-01-18T04:34:44.393Z,4.55
2018-01-18T04:35:44.418Z,4.50
2018-01-18T04:36:44.461Z,4.44
2018-01-18T04:37:44.503Z,4.40
2018-01-18T04:38:44.545Z,4.39
2018-01-18T04:39:44.604Z,4.50
2018-01-18T04:40:44.628Z,4.36
2018-01-18T04:41:44.672Z,4.52
2018-01-18T04:42:44.714Z,4.57
2018-01-18T04:43:44.755Z,4.46
2018-01-18T04:44:44.819Z,4.51
2018-01-18T04:45:44.839Z,4.55
2018-01-18T04:46:44.884Z,4.51
2018-01-18T04:47:44.923Z,4.51
2018-01-18T04:48:44.967Z,4.52
2018-01-18T04:49:45.026Z,4.46
2018-01-18T04:50:45.054Z,4.46
2018-01-18T04:51:45.098Z,4.51
2018-01-18T04:52:45.144Z,4.51
2018-01-18T04:53:45.178Z,4.54
2018-01-18T04:54:45.233Z,4.51
2018-01-18T04:55:45.263Z,4.51
2018-01-18T04:56:45.320Z,4.55
2018-01-18T04:57:45.347Z,4.51
2018-01-18T04:58:45.389Z,4.51
2018-01-18T04:59:45.447Z,4.46
2018-01-18T05:00:45.471Z,4.43
2018-01-18T05:01:45.519Z,4.47
2018-01-18T05:02:45.591Z,4.54
2018-01-18T05:03:45.597Z,4.55
2018-01-18T05:04:45.641Z,4.52
2018-01-18T05:05:45.682Z,4.52
2018-01-18T05:06:45.727Z,4.46
2018-01-18T05:07:45.782Z,4.51
2018-01-18T05:08:45.807Z,4.65
2018-01-18T05:09:45.850Z,4.58
2018-01-18T05:10:45.898Z,4.64
2018-01-18T05:11:45.935Z,4.67
2018-01-18T05:12:45.997Z,4.61
2018-01-18T05:13:46.021Z,4.62
2018-01-18T05:14:46.061Z,4.64
2018-01-18T05:15:46.120Z,4.64
2018-01-18T05:16:46.144Z,4.69
2018-01-18T05:17:46.187Z,4.62
2018-01-18T05:18:46.229Z,4.69
2018-01-18T05:19:46.274Z,4.57
2018-01-18T05:20:46.332Z,4.67
2018-01-18T05:21:46.356Z,4.64
2018-01-18T05:22:46.414Z,4.57
2018-01-18T05:23:46.440Z,4.59
2018-01-18T05:24:46.481Z,4.50
2018-01-18T05:25:46.541Z,4.47
2018-01-18T05:26:46.571Z,4.54
2018-01-18T05:27:46.609Z,4.52
2018-01-18T05:28:46.653Z,4.54
2018-01-18T05:29:46.696Z,4.51
2018-01-18T05:30:46.750Z,4.51
2018-01-18T05:31:46.781Z,4.54
2018-01-18T05:32:46.822Z,4.46
2018-01-18T05:33:46.880Z,4.55
2018-01-18T05:34:46.905Z,4.54
2018-01-18T05:35:46.972Z,4.62
2018-01-18T05:36:46.989Z,4.47
2018-01-18T05:37:47.031Z,4.46
2018-01-18T05:38:47.088Z,4.54
2018-01-18T05:39:47.115Z,4.58
2018-01-18T05:40:47.156Z,4.55
2018-01-18T05:41:47.199Z,4.62
2018-01-18T05:42:47.257Z,4.65
2018-01-18T05:43:47.283Z,4.65
2018-01-18T05:44:47.342Z,4.62
2018-01-18T05:45:47.368Z,4.67
2018-01-18T05:46:47.410Z,4.64
2018-01-18T05:47:47.457Z,4.58
2018-01-18T05:48:47.496Z,4.64
2018-01-18T05:49:47.552Z,4.59
2018-01-18T05:50:47.579Z,4.59
2018-01-18T05:51:47.621Z,4.61
2018-01-18T05:52:48.552Z,4.58
2018-01-18T05:53:47.722Z,4.61
2018-01-18T05:54:47.750Z,4.58
2018-01-18T05:55:47.805Z,4.59
2018-01-18T05:56:47.835Z,4.54
2018-01-18T05:57:47.876Z,4.55
2018-01-18T05:58:47.923Z,4.61
2018-01-18T05:59:47.988Z,4.58
2018-01-18T06:00:48.000Z,4.64
2018-01-18T06:01:48.048Z,4.61
2018-01-18T06:02:48.086Z,4.64
2018-01-18T06:03:48.127Z,4.52
2018-01-18T06:04:48.188Z,4.61
2018-01-18T06:05:48.214Z,4.54
2018-01-18T06:06:48.253Z,4.65
2018-01-18T06:07:48.297Z,4.59
2018-01-18T06:08:48.344Z,4.59
2018-01-18T06:09:48.398Z,4.59
2018-01-18T06:10:48.422Z,4.64
2018-01-18T06:11:48.468Z,4.64
2018-01-18T06:12:48.506Z,4.64
2018-01-18T06:13:48.549Z,4.64
2018-01-18T06:14:48.620Z,4.61
2018-01-18T06:15:48.656Z,4.59
2018-01-18T06:16:48.675Z,4.65
2018-01-18T06:17:48.720Z,4.55
2018-01-18T06:18:48.759Z,4.62
2018-01-18T06:19:48.801Z,4.65
2018-01-18T06:20:48.859Z,4.67
2018-01-18T06:21:48.889Z,4.70
2018-01-18T06:22:48.932Z,4.72
2018-01-18T06:23:48.971Z,4.64
2018-01-18T06:24:49.015Z,4.65
2018-01-18T06:25:49.071Z,4.76
2018-01-18T06:26:49.099Z,4.67
2018-01-18T06:27:49.137Z,4.77
2018-01-18T06:28:49.197Z,4.70
2018-01-18T06:29:49.223Z,4.77
2018-01-18T06:30:49.290Z,4.76
2018-01-18T06:31:49.306Z,4.75
2018-01-18T06:32:49.355Z,4.76
2018-01-18T06:33:49.395Z,4.73
2018-01-18T06:34:49.434Z,4.72
2018-01-18T06:35:49.507Z,4.76
2018-01-18T06:36:49.521Z,4.83
2018-01-18T06:37:49.563Z,4.76
2018-01-18T06:38:49.601Z,4.73
2018-01-18T06:39:49.647Z,4.79
2018-01-18T06:40:49.701Z,4.80
2018-01-18T06:41:49.734Z,4.84
2018-01-18T06:42:49.771Z,4.77
2018-01-18T06:43:49.809Z,4.80
2018-01-18T06:44:50.592Z,4.80
2018-01-18T06:45:49.916Z,4.79
2018-01-18T06:46:49.938Z,4.84
2018-01-18T06:47:49.982Z,4.80
2018-01-18T06:48:50.023Z,4.80
2018-01-18T06:49:50.067Z,4.89
2018-01-18T06:50:50.131Z,4.86
2018-01-18T06:51:50.148Z,4.91
2018-01-18T06:52:50.192Z,4.91
2018-01-18T06:53:50.238Z,4.96
2018-01-18T06:54:50.279Z,5.05
2018-01-18T06:55:50.336Z,5.01
2018-01-18T06:56:50.363Z,5.13
2018-01-18T06:57:50.409Z,5.14
2018-01-18T06:58:51.087Z,5.22
2018-01-18T06:59:50.492Z,5.25
2018-01-18T07:00:50.551Z,5.22
2018-01-18T07:01:50.578Z,5.22
2018-01-18T07:02:50.614Z,5.20
2018-01-18T07:03:50.882Z,5.28
2018-01-18T07:04:50.702Z,5.28
2018-01-18T07:05:50.747Z,5.25
2018-01-18T07:06:50.785Z,5.20
2018-01-18T07:07:50.845Z,5.16
2018-01-18T07:08:50.887Z,5.27
2018-01-18T07:09:50.913Z,5.32
2018-01-18T07:10:50.955Z,5.25
2018-01-18T07:11:50.997Z,5.35
2018-01-18T07:12:51.042Z,5.28
2018-01-18T07:13:51.098Z,5.27
2018-01-18T07:14:51.126Z,5.37
2018-01-18T07:15:51.167Z,5.27
2018-01-18T07:16:51.209Z,5.34
2018-01-18T07:17:51.251Z,5.28
2018-01-18T07:18:51.309Z,5.28
2018-01-18T07:19:51.337Z,5.28
2018-01-18T07:20:51.382Z,5.25
2018-01-18T07:21:51.422Z,5.22
2018-01-18T07:22:51.467Z,5.25
2018-01-18T07:23:51.524Z,5.19
2018-01-18T07:24:51.564Z,5.23
2018-01-18T07:25:51.597Z,5.20
2018-01-18T07:26:51.638Z,5.32
2018-01-18T07:27:51.676Z,5.27
2018-01-18T07:28:51.738Z,5.25
2018-01-18T07:29:51.766Z,5.19
2018-01-18T07:30:51.814Z,5.16
2018-01-18T07:31:51.850Z,5.27
2018-01-18T07:32:51.893Z,5.22
2018-01-18T07:33:51.948Z,5.14
2018-01-18T07:34:51.980Z,5.19
2018-01-18T07:35:52.019Z,5.22
2018-01-18T07:36:52.059Z,5.25
2018-01-18T07:37:52.105Z,5.19
2018-01-18T07:38:52.164Z,5.22
2018-01-18T07:39:52.189Z,5.20
2018-01-18T07:40:52.233Z,5.20
2018-01-18T07:41:52.278Z,5.27
2018-01-18T07:42:52.316Z,5.20
2018-01-18T07:43:52.374Z,5.20
2018-01-18T07:44:52.401Z,5.25
2018-01-18T07:45:52.444Z,5.19
2018-01-18T07:46:52.486Z,5.16
2018-01-18T07:47:52.530Z,5.25
2018-01-18T07:48:52.649Z,5.23
2018-01-18T07:49:52.617Z,5.19
2018-01-18T07:50:52.659Z,5.25
2018-01-18T07:51:52.699Z,5.19
2018-01-18T07:52:52.748Z,5.16
2018-01-18T07:53:52.805Z,5.22
2018-01-18T07:54:52.831Z,5.25
2018-01-18T07:55:52.871Z,5.31
2018-01-18T07:56:52.913Z,5.31
2018-01-18T07:57:52.956Z,5.28
2018-01-18T07:58:53.028Z,5.37
2018-01-18T07:59:53.042Z,5.30
2018-01-18T08:00:53.083Z,5.31
2018-01-18T08:01:53.129Z,5.34
2018-01-18T08:02:53.169Z,5.35
2018-01-18T08:03:53.229Z,5.34
2018-01-18T08:04:53.255Z,5.25
2018-01-18T08:05:53.320Z,5.35
2018-01-18T08:06:53.342Z,5.30
2018-01-18T08:07:53.383Z,5.37
2018-01-18T08:08:53.430Z,5.32
2018-01-18T08:11:29.922Z,5.22
2018-01-18T08:12:29.327Z,5.22
2018-01-18T08:13:29.360Z,5.28
2018-01-18T08:14:29.405Z,5.20
2018-01-18T08:15:29.453Z,5.22
2018-01-18T08:16:29.507Z,5.23
2018-01-18T08:17:29.531Z,5.20
2018-01-18T08:18:29.573Z,5.19
2018-01-18T08:19:29.616Z,5.22
2018-01-18T08:20:29.666Z,5.20
2018-01-18T08:21:29.725Z,5.19
2018-01-18T08:22:29.746Z,5.05
2018-01-18T08:23:29.789Z,5.12
2018-01-18T08:24:29.832Z,5.10
2018-01-18T08:25:29.875Z,5.01
2018-01-18T08:26:29.931Z,4.95
2018-01-18T08:27:29.957Z,4.92
2018-01-18T08:28:30.016Z,4.88
2018-01-18T08:29:30.045Z,4.89
2018-01-18T08:30:30.085Z,4.75
2018-01-18T08:31:30.128Z,4.79
2018-01-18T08:32:30.172Z,4.75
2018-01-18T08:33:30.229Z,4.73
2018-01-18T08:34:30.258Z,4.83
2018-01-18T08:35:30.304Z,4.72
2018-01-18T08:36:30.342Z,4.73
2018-01-18T08:37:30.387Z,4.79
2018-01-18T08:38:30.446Z,4.84
2018-01-18T08:39:30.467Z,4.94
2018-01-18T08:40:30.512Z,4.88
2018-01-18T08:41:30.573Z,4.95
2018-01-18T08:42:30.598Z,4.89
2018-01-18T08:43:30.649Z,4.96
2018-01-18T08:44:30.683Z,4.92
2018-01-18T08:45:30.728Z,4.92
2018-01-18T08:46:30.790Z,4.92
2018-01-18T08:47:30.810Z,4.91
2018-01-18T08:48:30.855Z,4.89
2018-01-18T08:49:30.899Z,4.89
2018-01-18T08:50:30.939Z,4.98
2018-01-18T08:51:30.997Z,4.91
2018-01-18T08:52:31.026Z,4.91
2018-01-18T08:53:31.067Z,4.91
2018-01-18T08:54:31.135Z,4.98
2018-01-18T08:55:31.157Z,4.96
2018-01-18T08:56:31.194Z,5.04
2018-01-18T08:57:31.237Z,5.04
2018-01-18T08:58:31.281Z,5.13
2018-01-18T08:59:31.339Z,5.14
2018-01-18T09:00:31.367Z,5.16
2018-01-18T09:01:31.409Z,5.17
2018-01-18T09:02:31.467Z,5.07
2018-01-18T09:03:31.495Z,5.07
2018-01-18T09:04:31.538Z,5.12
2018-01-18T09:05:31.582Z,5.12
2018-01-18T09:06:31.627Z,5.17
2018-01-18T09:07:31.682Z,5.27
2018-01-18T09:08:31.707Z,5.22
2018-01-18T09:09:31.752Z,5.25
2018-01-18T09:10:31.795Z,5.23
2018-01-18T09:11:31.852Z,5.19
2018-01-18T09:12:31.885Z,5.25
2018-01-18T09:13:31.939Z,5.20
2018-01-18T09:14:31.964Z,5.31
2018-01-18T09:15:32.007Z,5.16
2018-01-18T09:16:32.066Z,5.27
2018-01-18T09:17:32.093Z,5.25
2018-01-18T09:18:32.136Z,5.25
2018-01-18T09:19:32.919Z,5.35
2018-01-18T09:20:32.224Z,5.30
2018-01-18T09:21:32.282Z,5.34
2018-01-18T09:22:32.307Z,5.43
2018-01-18T09:23:32.353Z,5.53
2018-01-18T09:24:32.396Z,5.49
2018-01-18T09:25:32.436Z,5.56
2018-01-18T09:26:32.507Z,5.59
2018-01-18T09:27:32.522Z,5.59
2018-01-18T09:28:32.569Z,5.57
2018-01-18T09:29:32.627Z,5.64
2018-01-18T09:30:32.652Z,5.60
2018-01-18T09:31:32.694Z,5.64
2018-01-18T09:32:32.740Z,5.60
2018-01-18T09:33:32.780Z,5.57
2018-01-18T09:34:32.849Z,5.64
2018-01-18T09:35:32.865Z,5.56
2018-01-18T09:36:32.938Z,5.55
2018-01-18T09:37:32.953Z,5.70
2018-01-18T09:38:32.995Z,5.81
2018-01-18T09:39:33.045Z,5.86
2018-01-18T09:40:33.085Z,5.83
2018-01-18T09:41:33.141Z,5.89
2018-01-18T09:42:33.168Z,5.93
2018-01-18T09:43:33.216Z,6.06
2018-01-18T09:44:33.255Z,6.10
2018-01-18T09:45:33.306Z,6.18
2018-01-18T09:46:33.641Z,6.16
2018-01-18T09:47:33.385Z,6.21
2018-01-18T09:48:33.427Z,6.26
2018-01-18T09:49:33.471Z,6.21
2018-01-18T09:50:33.522Z,6.19
2018-01-18T09:51:33.556Z,6.19
2018-01-18T09:52:33.615Z,6.26
2018-01-18T09:53:33.662Z,6.38
2018-01-18T09:54:33.691Z,6.40
2018-01-18T09:55:33.749Z,6.51
2018-01-18T09:56:33.781Z,6.44
2018-01-18T09:57:33.836Z,6.48
2018-01-18T09:58:33.861Z,6.46
2018-01-18T09:59:33.902Z,6.46
2018-01-18T10:00:33.949Z,6.38
2018-01-18T10:01:33.989Z,6.35
2018-01-18T10:02:34.047Z,6.33
2018-01-18T10:03:34.078Z,6.38
2018-01-18T10:04:34.119Z,6.36
2018-01-18T10:05:34.180Z,6.38
2018-01-18T10:06:34.207Z,6.47
2018-01-18T10:07:34.266Z,6.46
2018-01-18T10:08:34.293Z,6.47
2018-01-18T10:09:34.338Z,6.40
2018-01-18T10:10:34.396Z,6.33
2018-01-18T10:11:34.427Z,6.38
2018-01-18T10:12:34.468Z,6.35
2018-01-18T10:13:34.511Z,6.35
2018-01-18T10:14:34.561Z,6.33
2018-01-18T10:15:34.641Z,6.25
2018-01-18T10:16:34.651Z,6.30
2018-01-18T10:17:34.707Z,6.33
2018-01-18T10:18:34.732Z,6.33
2018-01-18T10:19:34.774Z,6.28
2018-01-18T10:20:34.817Z,6.40
2018-01-18T10:21:34.862Z,6.44
2018-01-18T10:22:34.921Z,6.54
2018-01-18T10:23:34.998Z,6.66
2018-01-18T10:24:34.991Z,6.65
2018-01-18T10:25:35.039Z,6.71
2018-01-18T10:26:35.078Z,6.79
2018-01-18T10:27:35.162Z,6.81
2018-01-18T10:28:35.171Z,6.79
2018-01-18T10:29:35.212Z,6.73
2018-01-18T10:30:35.260Z,6.73
2018-01-18T10:31:35.322Z,6.84
2018-01-18T10:32:35.363Z,6.94
2018-01-18T10:33:35.408Z,6.98
2018-01-18T10:34:35.428Z,6.95
2018-01-18T10:35:35.472Z,6.89
2018-01-18T10:36:35.517Z,6.87
2018-01-18T10:37:35.575Z,6.94
2018-01-18T10:38:35.610Z,6.90
2018-01-18T10:39:35.652Z,6.73
2018-01-18T10:40:35.690Z,6.90
2018-01-18T10:41:35.734Z,6.77
2018-01-18T10:42:35.818Z,6.91
2018-01-18T10:43:35.826Z,6.81
2018-01-18T10:44:35.882Z,6.90
2018-01-18T10:45:35.912Z,6.95
2018-01-18T10:46:35.951Z,6.87
2018-01-18T10:47:36.018Z,6.80
2018-01-18T10:48:36.041Z,6.89
2018-01-18T10:49:36.092Z,6.84
2018-01-18T10:50:36.127Z,6.86
2018-01-18T10:51:36.172Z,6.91
2018-01-18T10:52:36.239Z,6.90
2018-01-18T10:53:36.267Z,6.97
2018-01-18T10:54:36.302Z,6.90
2018-01-18T10:55:36.347Z,6.94
2018-01-18T10:56:36.391Z,6.94
2018-01-18T10:57:36.458Z,7.07
2018-01-18T10:58:36.479Z,7.01
2018-01-18T10:59:36.537Z,7.19
2018-01-18T11:00:36.604Z,7.17
2018-01-18T11:01:36.611Z,7.13
2018-01-18T11:02:36.660Z,7.17
2018-01-18T11:03:36.734Z,7.15
2018-01-18T11:04:36.757Z,7.19
2018-01-18T11:05:36.814Z,7.22
2018-01-18T11:06:36.830Z,7.20
2018-01-18T11:07:36.877Z,7.17
2018-01-18T11:08:36.916Z,7.13
2018-01-18T11:09:36.976Z,7.26
2018-01-18T11:10:37.021Z,7.17
2018-01-18T11:11:37.073Z,7.27
2018-01-18T11:12:37.092Z,7.32
2018-01-18T11:13:37.140Z,7.31
2018-01-18T11:14:37.181Z,7.26
2018-01-18T11:15:37.242Z,7.29
2018-01-18T11:16:37.268Z,7.29
2018-01-18T11:17:37.312Z,7.26
2018-01-18T11:18:37.361Z,7.26
2018-01-18T11:19:37.402Z,7.27
2018-01-18T11:20:37.462Z,7.29
2018-01-18T11:21:37.490Z,7.24
2018-01-18T11:22:37.532Z,7.27
2018-01-18T11:23:37.581Z,7.26
2018-01-18T11:24:37.620Z,7.26
2018-01-18T11:25:37.684Z,7.32
2018-01-18T11:26:37.709Z,7.27
2018-01-18T11:27:37.755Z,7.29
2018-01-18T11:28:37.796Z,7.29
2018-01-18T11:29:37.848Z,7.24
2018-01-18T11:30:37.904Z,7.31
2018-01-18T11:31:37.929Z,7.27
2018-01-18T11:32:37.979Z,7.27
2018-01-18T11:33:38.022Z,7.29
2018-01-18T11:34:38.725Z,7.27
2018-01-18T11:35:38.128Z,7.32
2018-01-18T11:36:38.149Z,7.29
2018-01-18T11:37:38.195Z,7.31
2018-01-18T11:38:38.241Z,7.26
2018-01-18T11:39:38.281Z,7.24
2018-01-18T11:40:38.341Z,7.42
2018-01-18T11:41:38.373Z,7.49
2018-01-18T11:42:38.431Z,7.50
2018-01-18T11:43:38.458Z,7.49
2018-01-18T11:44:38.503Z,7.55
2018-01-18T11:45:38.550Z,7.62
2018-01-18T11:46:38.603Z,7.59
2018-01-18T11:47:38.655Z,7.58
2018-01-18T11:48:38.679Z,7.63
2018-01-18T11:49:38.723Z,7.63
2018-01-18T11:50:38.767Z,7.59
2018-01-18T11:51:38.812Z,7.56
2018-01-18T11:52:38.877Z,7.69
2018-01-18T11:53:38.902Z,7.75
2018-01-18T11:54:38.944Z,7.74
2018-01-18T11:55:38.992Z,7.60
2018-01-18T11:56:39.033Z,7.75
2018-01-18T11:57:39.099Z,7.71
2018-01-18T11:58:39.122Z,7.74
2018-01-18T11:59:39.183Z,7.78
2018-01-18T12:00:39.211Z,7.72
2018-01-18T12:01:39.256Z,7.78
2018-01-18T12:02:39.312Z,7.81
2018-01-18T12:03:39.362Z,7.82
2018-01-18T12:04:39.389Z,7.77
2018-01-18T12:05:39.432Z,7.84
2018-01-18T12:06:39.479Z,7.89
2018-01-18T12:07:39.551Z,7.93
2018-01-18T12:08:39.565Z,8.07
2018-01-18T12:09:40.223Z,8.08
2018-01-18T12:10:39.658Z,8.17
2018-01-18T12:11:39.699Z,8.11
2018-01-18T12:12:40.258Z,8.20
2018-01-18T12:13:39.797Z,8.25
2018-01-18T12:14:39.832Z,8.22
2018-01-18T12:15:39.918Z,8.22
2018-01-18T12:16:39.922Z,8.21
2018-01-18T12:17:39.966Z,8.22
2018-01-18T12:18:40.033Z,8.22
2018-01-18T12:19:40.058Z,8.30
2018-01-18T12:20:40.123Z,8.32
2018-01-18T12:21:40.161Z,8.35
2018-01-18T12:22:40.217Z,8.36
2018-01-18T12:23:40.264Z,8.37
2018-01-18T12:24:40.286Z,8.47
2018-01-18T12:25:40.325Z,8.42
2018-01-18T12:26:40.370Z,8.50
2018-01-18T12:27:40.414Z,8.47
2018-01-18T12:28:40.478Z,8.45
2018-01-18T12:29:40.506Z,8.45
2018-01-18T12:30:40.550Z,8.55
2018-01-18T12:31:40.613Z,8.50
2018-01-18T12:32:40.646Z,8.60
2018-01-18T12:33:40.688Z,8.66
2018-01-18T12:34:40.742Z,8.75
2018-01-18T12:35:40.800Z,8.68
2018-01-18T12:36:40.826Z,8.79
2018-01-18T12:37:40.862Z,8.84
2018-01-18T12:38:40.908Z,8.97
2018-01-18T12:39:40.956Z,8.91
2018-01-18T12:40:41.024Z,9.02
2018-01-18T12:41:41.052Z,9.01
2018-01-18T12:42:41.089Z,9.18
2018-01-18T12:43:41.134Z,9.20
2018-01-18T12:44:41.183Z,9.23
2018-01-18T12:45:41.246Z,9.23
2018-01-18T12:46:41.270Z,9.24
2018-01-18T12:47:41.315Z,9.27
2018-01-18T12:48:41.360Z,9.32
2018-01-18T12:49:41.405Z,9.42
2018-01-18T12:50:41.468Z,9.42
2018-01-18T12:51:41.497Z,9.52
2018-01-18T12:52:41.544Z,9.53
2018-01-18T12:53:41.589Z,9.61
2018-01-18T12:54:41.628Z,9.70
2018-01-18T12:55:41.693Z,9.82
2018-01-18T12:56:41.724Z,9.88
2018-01-18T12:57:41.785Z,9.88
2018-01-18T12:58:41.813Z,9.97
2018-01-18T12:59:41.863Z,9.94
2018-01-18T13:00:41.945Z,9.88
2018-01-18T13:01:41.954Z,9.83
2018-01-18T13:02:42.014Z,9.81
2018-01-18T13:03:42.043Z,9.83
2018-01-18T13:04:42.094Z,9.82
2018-01-18T13:05:42.138Z,9.91
2018-01-18T13:06:42.199Z,9.83
2018-01-18T13:07:42.229Z,9.86
2018-01-18T13:08:42.274Z,9.85
2018-01-18T13:09:42.319Z,9.79
2018-01-18T13:10:42.366Z,9.68
2018-01-18T13:11:42.434Z,9.58
2018-01-18T13:12:42.455Z,9.57
2018-01-18T13:13:42.508Z,9.60
2018-01-18T13:14:42.555Z,9.57
2018-01-18T13:15:42.593Z,9.56
2018-01-18T13:16:42.658Z,9.56
2018-01-18T13:17:42.685Z,9.56
2018-01-18T13:18:42.738Z,9.53
2018-01-18T13:19:42.780Z,9.49
2018-01-18T13:20:42.839Z,9.48